DHX677 OBBI-OKKK
Flight info
| Callsign | DHX677 |
|---|---|
| Flight time | 0h 47m |
| Altitude | 26000 |
| Route | BHR A453 KUMBO/N0408F240 A453 DEBTI |
| Aircraft | B738/M-SDE2E3FGHIRWXY/LB1 |
Departure
| Time | 2026-04-28 12:53 |
|---|---|
| Airport | Bahrain International Airport (OBBI) |
Arrival
| Time | 2026-04-28 13:41 |
|---|---|
| Airport | Kuwait International Airport (OKKK) |
| Time | Latitude | Longitude | Altitude | Speed | Heading |
|---|---|---|---|---|---|
| 2026-04-28 12:16 | 26.26666 | 50.63313 | 13 ft | 0 kts | 213° |
| 2026-04-28 12:47 | 26.26668 | 50.63314 | 13 ft | 1 kts | 213° |
| 2026-04-28 12:47 | 26.26676 | 50.63320 | 13 ft | 1 kts | 212° |
| 2026-04-28 12:48 | 26.26685 | 50.63326 | 13 ft | 1 kts | 212° |
| 2026-04-28 12:48 | 26.26693 | 50.63332 | 13 ft | 1 kts | 230° |
| 2026-04-28 12:48 | 26.26695 | 50.63344 | 13 ft | 1 kts | 285° |
| 2026-04-28 12:48 | 26.26693 | 50.63349 | 13 ft | 0 kts | 303° |
| 2026-04-28 12:49 | 26.26696 | 50.63346 | 13 ft | 3 kts | 317° |
| 2026-04-28 12:49 | 26.26765 | 50.63349 | 13 ft | 16 kts | 22° |
| 2026-04-28 12:49 | 26.26808 | 50.63482 | 12 ft | 26 kts | 114° |
| 2026-04-28 12:50 | 26.26680 | 50.63688 | 13 ft | 38 kts | 122° |
| 2026-04-28 12:50 | 26.26523 | 50.63971 | 13 ft | 45 kts | 127° |
| 2026-04-28 12:50 | 26.26337 | 50.64286 | 13 ft | 52 kts | 125° |
| 2026-04-28 12:50 | 26.26131 | 50.64651 | 13 ft | 52 kts | 120° |
| 2026-04-28 12:51 | 26.26002 | 50.64904 | 13 ft | 23 kts | 82° |
| 2026-04-28 12:51 | 26.26131 | 50.64994 | 13 ft | 23 kts | 335° |
| 2026-04-28 12:51 | 26.26160 | 50.64964 | 13 ft | 0 kts | 310° |
| 2026-04-28 12:53 | 26.26176 | 50.64941 | 13 ft | 23 kts | 306° |
| 2026-04-28 12:53 | 26.26496 | 50.64396 | 13 ft | 140 kts | 304° |
| 2026-04-28 12:53 | 26.27149 | 50.63231 | 464 ft | 196 kts | 304° |
| 2026-04-28 12:53 | 26.28064 | 50.62098 | 1696 ft | 212 kts | 323° |
| 2026-04-28 12:54 | 26.29371 | 50.61379 | 2960 ft | 219 kts | 344° |
| 2026-04-28 12:54 | 26.30882 | 50.60987 | 3953 ft | 235 kts | 347° |
| 2026-04-28 12:54 | 26.32571 | 50.60600 | 4579 ft | 263 kts | 347° |
| 2026-04-28 12:54 | 26.34436 | 50.60181 | 4792 ft | 275 kts | 347° |
| 2026-04-28 12:55 | 26.36302 | 50.59765 | 4917 ft | 269 kts | 346° |
| 2026-04-28 12:55 | 26.38111 | 50.59271 | 5407 ft | 271 kts | 342° |
| 2026-04-28 12:55 | 26.39972 | 50.58689 | 6214 ft | 288 kts | 342° |
| 2026-04-28 12:55 | 26.41934 | 50.58077 | 7022 ft | 297 kts | 342° |
| 2026-04-28 12:56 | 26.43947 | 50.57470 | 7826 ft | 304 kts | 341° |
| 2026-04-28 12:56 | 26.46030 | 50.56841 | 8645 ft | 309 kts | 341° |
| 2026-04-28 12:56 | 26.48120 | 50.56226 | 9449 ft | 314 kts | 341° |
| 2026-04-28 12:56 | 26.50241 | 50.55624 | 10256 ft | 322 kts | 342° |
| 2026-04-28 12:57 | 26.52436 | 50.54976 | 11075 ft | 326 kts | 338° |
| 2026-04-28 12:57 | 26.54568 | 50.54076 | 11890 ft | 331 kts | 333° |
| 2026-04-28 12:57 | 26.56722 | 50.53128 | 12702 ft | 338 kts | 335° |
| 2026-04-28 12:57 | 26.58980 | 50.52242 | 13532 ft | 344 kts | 337° |
| 2026-04-28 12:58 | 26.61258 | 50.51417 | 14350 ft | 348 kts | 338° |
| 2026-04-28 12:58 | 26.63581 | 50.50617 | 15180 ft | 350 kts | 338° |
| 2026-04-28 12:58 | 26.65946 | 50.49828 | 16021 ft | 353 kts | 337° |
| 2026-04-28 12:58 | 26.68328 | 50.49031 | 16546 ft | 361 kts | 336° |
| 2026-04-28 12:59 | 26.70734 | 50.48195 | 16844 ft | 359 kts | 334° |
| 2026-04-28 12:59 | 26.72957 | 50.47052 | 17324 ft | 342 kts | 317° |
| 2026-04-28 12:59 | 26.74570 | 50.45229 | 18191 ft | 329 kts | 300° |
| 2026-04-28 12:59 | 26.75823 | 50.43119 | 19162 ft | 323 kts | 297° |
| 2026-04-28 13:00 | 26.77243 | 50.41146 | 20047 ft | 329 kts | 306° |
| 2026-04-28 13:00 | 26.78851 | 50.39358 | 20918 ft | 330 kts | 308° |
| 2026-04-28 13:00 | 26.80539 | 50.37568 | 21813 ft | 329 kts | 308° |
| 2026-04-28 13:00 | 26.82178 | 50.35833 | 22696 ft | 326 kts | 309° |
| 2026-04-28 13:01 | 26.83817 | 50.34100 | 23591 ft | 323 kts | 307° |
| 2026-04-28 13:01 | 26.85451 | 50.32375 | 24491 ft | 319 kts | 307° |
| 2026-04-28 13:01 | 26.87033 | 50.30703 | 25356 ft | 314 kts | 307° |
| 2026-04-28 13:01 | 26.88599 | 50.29048 | 26215 ft | 308 kts | 306° |
| 2026-04-28 13:02 | 26.90176 | 50.27365 | 26654 ft | 315 kts | 306° |
| 2026-04-28 13:02 | 26.91802 | 50.25618 | 26765 ft | 333 kts | 306° |
| 2026-04-28 13:02 | 26.93511 | 50.23775 | 26775 ft | 352 kts | 306° |
| 2026-04-28 13:02 | 26.95334 | 50.21813 | 26773 ft | 371 kts | 307° |
| 2026-04-28 13:03 | 26.97243 | 50.19754 | 26770 ft | 388 kts | 307° |
| 2026-04-28 13:03 | 26.99234 | 50.17611 | 26768 ft | 398 kts | 308° |
| 2026-04-28 13:03 | 27.01235 | 50.15479 | 26766 ft | 396 kts | 308° |
| 2026-04-28 13:03 | 27.03232 | 50.13365 | 26766 ft | 392 kts | 307° |
| 2026-04-28 13:04 | 27.05148 | 50.11195 | 26619 ft | 394 kts | 298° |
| 2026-04-28 13:04 | 27.06587 | 50.08511 | 26146 ft | 414 kts | 292° |
| 2026-04-28 13:04 | 27.07883 | 50.05601 | 25822 ft | 419 kts | 292° |
| 2026-04-28 13:04 | 27.09557 | 50.02890 | 25774 ft | 426 kts | 303° |
| 2026-04-28 13:05 | 27.11746 | 50.00581 | 25770 ft | 436 kts | 314° |
| 2026-04-28 13:05 | 27.14309 | 49.98618 | 25771 ft | 443 kts | 319° |
| 2026-04-28 13:05 | 27.16917 | 49.96834 | 25769 ft | 443 kts | 321° |
| 2026-04-28 13:05 | 27.19598 | 49.95035 | 25768 ft | 444 kts | 321° |
| 2026-04-28 13:06 | 27.22252 | 49.93256 | 25768 ft | 443 kts | 321° |
| 2026-04-28 13:06 | 27.24154 | 49.91976 | 25770 ft | 443 kts | 320° |
| 2026-04-28 13:06 | 27.26574 | 49.89875 | 25768 ft | 430 kts | 308° |
| 2026-04-28 13:06 | 27.28511 | 49.87365 | 25771 ft | 425 kts | 301° |
| 2026-04-28 13:07 | 27.30287 | 49.84679 | 25769 ft | 424 kts | 298° |
| 2026-04-28 13:07 | 27.32026 | 49.81988 | 25769 ft | 424 kts | 299° |
| 2026-04-28 13:07 | 27.33753 | 49.79315 | 25768 ft | 422 kts | 298° |
| 2026-04-28 13:07 | 27.35461 | 49.76608 | 25769 ft | 423 kts | 298° |
| 2026-04-28 13:08 | 27.37182 | 49.73920 | 25768 ft | 423 kts | 299° |
| 2026-04-28 13:08 | 27.38922 | 49.71236 | 25768 ft | 422 kts | 299° |
| 2026-04-28 13:08 | 27.40646 | 49.68575 | 25769 ft | 424 kts | 299° |
| 2026-04-28 13:08 | 27.42400 | 49.65868 | 25769 ft | 423 kts | 299° |
| 2026-04-28 13:09 | 27.44118 | 49.63211 | 25769 ft | 424 kts | 298° |
| 2026-04-28 13:09 | 27.45881 | 49.60494 | 25769 ft | 424 kts | 299° |
| 2026-04-28 13:09 | 27.47603 | 49.57826 | 25770 ft | 424 kts | 299° |
| 2026-04-28 13:09 | 27.49316 | 49.55161 | 25769 ft | 421 kts | 299° |
| 2026-04-28 13:10 | 27.51057 | 49.52475 | 25770 ft | 424 kts | 299° |
| 2026-04-28 13:10 | 27.52791 | 49.49795 | 25769 ft | 423 kts | 299° |
| 2026-04-28 13:10 | 27.54585 | 49.47146 | 25765 ft | 426 kts | 303° |
| 2026-04-28 13:10 | 27.56767 | 49.44832 | 25769 ft | 438 kts | 315° |
| 2026-04-28 13:11 | 27.59375 | 49.42942 | 25773 ft | 446 kts | 322° |
| 2026-04-28 13:11 | 27.62148 | 49.41299 | 25771 ft | 447 kts | 325° |
| 2026-04-28 13:11 | 27.64957 | 49.39715 | 25695 ft | 449 kts | 325° |
| 2026-04-28 13:11 | 27.67688 | 49.38077 | 25270 ft | 448 kts | 322° |
| 2026-04-28 13:12 | 27.70348 | 49.36254 | 24670 ft | 439 kts | 320° |
| 2026-04-28 13:12 | 27.72842 | 49.34381 | 24187 ft | 429 kts | 317° |
| 2026-04-28 13:12 | 27.75274 | 49.32408 | 23794 ft | 426 kts | 316° |
| 2026-04-28 13:12 | 27.77638 | 49.30410 | 23412 ft | 425 kts | 313° |
| 2026-04-28 13:13 | 27.79896 | 49.28220 | 23024 ft | 422 kts | 311° |
| 2026-04-28 13:13 | 27.82048 | 49.26001 | 22642 ft | 420 kts | 310° |
| 2026-04-28 13:13 | 27.84182 | 49.23776 | 22349 ft | 417 kts | 311° |
| 2026-04-28 13:13 | 27.86504 | 49.21768 | 22093 ft | 424 kts | 320° |
| 2026-04-28 13:14 | 27.89095 | 49.20113 | 21852 ft | 428 kts | 325° |
| 2026-04-28 13:14 | 27.91755 | 49.18588 | 21775 ft | 421 kts | 326° |
| 2026-04-28 13:14 | 27.94344 | 49.17131 | 21769 ft | 414 kts | 326° |
| 2026-04-28 13:14 | 27.96931 | 49.15679 | 21770 ft | 417 kts | 326° |
| 2026-04-28 13:15 | 27.99545 | 49.14210 | 21769 ft | 416 kts | 326° |
| 2026-04-28 13:15 | 28.02089 | 49.12582 | 21771 ft | 415 kts | 321° |
| 2026-04-28 13:15 | 28.04507 | 49.10870 | 21770 ft | 412 kts | 320° |
| 2026-04-28 13:15 | 28.06965 | 49.09099 | 21771 ft | 413 kts | 320° |
| 2026-04-28 13:16 | 28.09384 | 49.07354 | 21770 ft | 412 kts | 320° |
| 2026-04-28 13:16 | 28.11808 | 49.05601 | 21771 ft | 412 kts | 320° |
| 2026-04-28 13:16 | 28.14233 | 49.03845 | 21769 ft | 409 kts | 320° |
| 2026-04-28 13:16 | 28.16616 | 49.02124 | 21770 ft | 409 kts | 320° |
| 2026-04-28 13:17 | 28.19045 | 49.00371 | 21769 ft | 410 kts | 320° |
| 2026-04-28 13:17 | 28.21432 | 48.98644 | 21769 ft | 409 kts | 320° |
| 2026-04-28 13:17 | 28.23842 | 48.96899 | 21663 ft | 413 kts | 320° |
| 2026-04-28 13:17 | 28.26158 | 48.94941 | 21151 ft | 407 kts | 313° |
| 2026-04-28 13:18 | 28.28218 | 48.92832 | 20405 ft | 399 kts | 309° |
| 2026-04-28 13:18 | 28.30309 | 48.90744 | 19640 ft | 399 kts | 316° |
| 2026-04-28 13:18 | 28.32621 | 48.89035 | 18904 ft | 400 kts | 322° |
| 2026-04-28 13:18 | 28.35051 | 48.87495 | 18183 ft | 396 kts | 325° |
| 2026-04-28 13:19 | 28.37459 | 48.86033 | 17842 ft | 383 kts | 325° |
| 2026-04-28 13:19 | 28.39774 | 48.84611 | 17781 ft | 379 kts | 324° |
| 2026-04-28 13:19 | 28.42101 | 48.83127 | 17773 ft | 384 kts | 323° |
| 2026-04-28 13:19 | 28.44432 | 48.81600 | 17770 ft | 386 kts | 322° |
| 2026-04-28 13:20 | 28.46756 | 48.80064 | 17770 ft | 388 kts | 323° |
| 2026-04-28 13:20 | 28.49115 | 48.78501 | 17768 ft | 386 kts | 322° |
| 2026-04-28 13:20 | 28.51461 | 48.77060 | 17779 ft | 387 kts | 326° |
| 2026-04-28 13:20 | 28.53767 | 48.75457 | 17768 ft | 381 kts | 317° |
| 2026-04-28 13:21 | 28.55835 | 48.73607 | 17534 ft | 383 kts | 314° |
| 2026-04-28 13:21 | 28.57898 | 48.71652 | 16902 ft | 384 kts | 313° |
| 2026-04-28 13:21 | 28.59916 | 48.69714 | 16188 ft | 379 kts | 313° |
| 2026-04-28 13:21 | 28.61898 | 48.67810 | 15841 ft | 367 kts | 313° |
| 2026-04-28 13:22 | 28.63720 | 48.65787 | 15780 ft | 361 kts | 306° |
| 2026-04-28 13:22 | 28.65373 | 48.63600 | 15774 ft | 368 kts | 303° |
| 2026-04-28 13:22 | 28.66953 | 48.61303 | 15769 ft | 368 kts | 302° |
| 2026-04-28 13:22 | 28.68506 | 48.58993 | 15768 ft | 367 kts | 301° |
| 2026-04-28 13:23 | 28.70054 | 48.56668 | 15784 ft | 356 kts | 301° |
| 2026-04-28 13:23 | 28.71503 | 48.54543 | 15754 ft | 329 kts | 302° |
| 2026-04-28 13:23 | 28.73066 | 48.52696 | 15450 ft | 326 kts | 314° |
| 2026-04-28 13:23 | 28.74909 | 48.51146 | 14901 ft | 326 kts | 317° |
| 2026-04-28 13:24 | 28.76649 | 48.49502 | 14138 ft | 325 kts | 313° |
| 2026-04-28 13:24 | 28.78443 | 48.47923 | 13313 ft | 330 kts | 324° |
| 2026-04-28 13:24 | 28.80456 | 48.46699 | 12863 ft | 321 kts | 328° |
| 2026-04-28 13:24 | 28.82404 | 48.45603 | 12775 ft | 309 kts | 329° |
| 2026-04-28 13:25 | 28.84378 | 48.44482 | 12656 ft | 320 kts | 328° |
| 2026-04-28 13:25 | 28.86386 | 48.43337 | 12482 ft | 315 kts | 329° |
| 2026-04-28 13:25 | 28.88329 | 48.42267 | 12110 ft | 305 kts | 329° |
| 2026-04-28 13:25 | 28.90205 | 48.41180 | 11461 ft | 304 kts | 328° |
| 2026-04-28 13:26 | 28.92088 | 48.40050 | 10867 ft | 301 kts | 328° |
| 2026-04-28 13:26 | 28.93903 | 48.38952 | 10327 ft | 296 kts | 328° |
| 2026-04-28 13:26 | 28.95715 | 48.37858 | 10062 ft | 285 kts | 328° |
| 2026-04-28 13:26 | 28.97480 | 48.36784 | 9940 ft | 292 kts | 328° |
| 2026-04-28 13:27 | 28.99282 | 48.35675 | 9526 ft | 297 kts | 327° |
| 2026-04-28 13:27 | 29.01077 | 48.34558 | 9186 ft | 285 kts | 327° |
| 2026-04-28 13:27 | 29.02800 | 48.33495 | 8611 ft | 283 kts | 327° |
| 2026-04-28 13:27 | 29.04537 | 48.32426 | 8035 ft | 280 kts | 327° |
| 2026-04-28 13:28 | 29.06242 | 48.31364 | 7462 ft | 277 kts | 327° |
| 2026-04-28 13:28 | 29.07926 | 48.30287 | 6895 ft | 274 kts | 327° |
| 2026-04-28 13:28 | 29.09569 | 48.29230 | 6337 ft | 271 kts | 327° |
| 2026-04-28 13:28 | 29.11194 | 48.28182 | 5819 ft | 267 kts | 328° |
| 2026-04-28 13:29 | 29.12817 | 48.27124 | 5269 ft | 264 kts | 327° |
| 2026-04-28 13:29 | 29.14355 | 48.26070 | 5055 ft | 256 kts | 327° |
| 2026-04-28 13:29 | 29.15884 | 48.25003 | 5040 ft | 258 kts | 327° |
| 2026-04-28 13:29 | 29.17421 | 48.23930 | 4827 ft | 257 kts | 327° |
| 2026-04-28 13:30 | 29.18942 | 48.22859 | 4249 ft | 258 kts | 327° |
| 2026-04-28 13:30 | 29.20467 | 48.21762 | 3548 ft | 263 kts | 327° |
| 2026-04-28 13:30 | 29.22003 | 48.20646 | 3146 ft | 253 kts | 327° |
| 2026-04-28 13:30 | 29.23449 | 48.19588 | 3043 ft | 241 kts | 327° |
| 2026-04-28 13:31 | 29.26207 | 48.17555 | 3043 ft | 233 kts | 327° |
| 2026-04-28 13:31 | 29.27598 | 48.16564 | 3043 ft | 232 kts | 328° |
| 2026-04-28 13:31 | 29.28972 | 48.15589 | 3043 ft | 232 kts | 328° |
| 2026-04-28 13:32 | 29.30368 | 48.14598 | 3042 ft | 232 kts | 328° |
| 2026-04-28 13:32 | 29.31738 | 48.13624 | 3043 ft | 232 kts | 327° |
| 2026-04-28 13:32 | 29.32937 | 48.12378 | 3044 ft | 232 kts | 306° |
| 2026-04-28 13:32 | 29.33805 | 48.10862 | 3046 ft | 225 kts | 303° |
| 2026-04-28 13:33 | 29.34648 | 48.09352 | 3023 ft | 222 kts | 303° |
| 2026-04-28 13:33 | 29.35461 | 48.07898 | 2746 ft | 216 kts | 303° |
| 2026-04-28 13:33 | 29.36265 | 48.06449 | 2445 ft | 208 kts | 303° |
| 2026-04-28 13:33 | 29.37017 | 48.05106 | 2424 ft | 192 kts | 303° |
| 2026-04-28 13:34 | 29.37723 | 48.03834 | 2440 ft | 189 kts | 303° |
| 2026-04-28 13:34 | 29.38437 | 48.02540 | 2444 ft | 191 kts | 303° |
| 2026-04-28 13:34 | 29.39151 | 48.01257 | 2443 ft | 190 kts | 303° |
| 2026-04-28 13:34 | 29.39862 | 47.99963 | 2444 ft | 190 kts | 303° |
| 2026-04-28 13:35 | 29.40564 | 47.98677 | 2442 ft | 190 kts | 299° |
| 2026-04-28 13:35 | 29.40903 | 47.97204 | 2442 ft | 194 kts | 269° |
| 2026-04-28 13:35 | 29.40540 | 47.95730 | 2450 ft | 197 kts | 243° |
| 2026-04-28 13:35 | 29.39891 | 47.94329 | 2445 ft | 197 kts | 243° |
| 2026-04-28 13:36 | 29.39254 | 47.92950 | 2445 ft | 196 kts | 238° |
| 2026-04-28 13:36 | 29.38289 | 47.91851 | 2448 ft | 197 kts | 212° |
| 2026-04-28 13:36 | 29.37175 | 47.90925 | 2427 ft | 199 kts | 226° |
| 2026-04-28 13:36 | 29.36303 | 47.89649 | 2154 ft | 204 kts | 234° |
| 2026-04-28 13:37 | 29.35379 | 47.88387 | 1668 ft | 210 kts | 221° |
| 2026-04-28 13:37 | 29.34114 | 47.87671 | 1518 ft | 198 kts | 189° |
| 2026-04-28 13:37 | 29.32802 | 47.87808 | 1539 ft | 191 kts | 156° |
| 2026-04-28 13:37 | 29.31735 | 47.88732 | 1550 ft | 192 kts | 126° |
| 2026-04-28 13:38 | 29.30885 | 47.89841 | 1559 ft | 175 kts | 140° |
| 2026-04-28 13:38 | 29.29863 | 47.90438 | 1578 ft | 162 kts | 153° |
| 2026-04-28 13:38 | 29.28834 | 47.91003 | 1593 ft | 153 kts | 152° |
| 2026-04-28 13:38 | 29.27830 | 47.91518 | 1457 ft | 164 kts | 152° |
| 2026-04-28 13:39 | 29.26784 | 47.92038 | 1266 ft | 161 kts | 153° |
| 2026-04-28 13:39 | 29.25774 | 47.92582 | 1056 ft | 159 kts | 152° |
| 2026-04-28 13:39 | 29.24768 | 47.93115 | 803 ft | 154 kts | 151° |
| 2026-04-28 13:39 | 29.23828 | 47.93632 | 462 ft | 145 kts | 151° |
| 2026-04-28 13:40 | 29.22945 | 47.94121 | 206 ft | 138 kts | 152° |
| 2026-04-28 13:40 | 29.22175 | 47.94541 | 158 ft | 99 kts | 150° |
| 2026-04-28 13:40 | 29.21683 | 47.94809 | 155 ft | 70 kts | 154° |
| 2026-04-28 13:40 | 29.21239 | 47.95057 | 157 ft | 66 kts | 151° |
| 2026-04-28 13:41 | 29.20870 | 47.95249 | 160 ft | 48 kts | 153° |
| 2026-04-28 13:41 | 29.20670 | 47.95396 | 164 ft | 31 kts | 139° |
| 2026-04-28 13:41 | 29.20557 | 47.95543 | 166 ft | 9 kts | 124° |
| 2026-04-28 13:41 | 29.20556 | 47.95546 | 166 ft | 0 kts | 124° |
| 2026-04-28 13:42 | 29.20555 | 47.95549 | 166 ft | 3 kts | 111° |
| 2026-04-28 13:42 | 29.20629 | 47.95612 | 165 ft | 24 kts | 341° |
| 2026-04-28 13:42 | 29.20887 | 47.95482 | 161 ft | 55 kts | 338° |
| 2026-04-28 13:42 | 29.21234 | 47.95293 | 157 ft | 49 kts | 334° |
| 2026-04-28 13:43 | 29.21583 | 47.95100 | 155 ft | 45 kts | 334° |
| 2026-04-28 13:43 | 29.21851 | 47.94960 | 155 ft | 29 kts | 336° |
| 2026-04-28 13:43 | 29.21968 | 47.95023 | 154 ft | 14 kts | 63° |
| 2026-04-28 13:43 | 29.22028 | 47.95157 | 155 ft | 24 kts | 63° |
| 2026-04-28 13:44 | 29.22141 | 47.95428 | 158 ft | 51 kts | 66° |
| 2026-04-28 13:44 | 29.22293 | 47.95791 | 154 ft | 56 kts | 65° |
| 2026-04-28 13:44 | 29.22407 | 47.96087 | 151 ft | 42 kts | 67° |
| 2026-04-28 13:44 | 29.22540 | 47.96323 | 151 ft | 29 kts | 8° |
| 2026-04-28 13:45 | 29.22751 | 47.96231 | 148 ft | 36 kts | 334° |
| 2026-04-28 13:45 | 29.22963 | 47.96116 | 149 ft | 31 kts | 336° |
| 2026-04-28 13:45 | 29.23023 | 47.96035 | 151 ft | 14 kts | 265° |
| 2026-04-28 13:45 | 29.23002 | 47.95963 | 151 ft | 0 kts | 247° |